Time;durP1;ratioP1;P1;durP2;ratioP2;P2;SDS_P1;SDS_P2;PMS_P1;PMS_P2;Temp;Humidity;BMP_temperature;BMP_pressure;BME280_temperature;BME280_humidity;BME280_pressure;Samples;Min_cycle;Max_cycle;Signal;HPM_P1;HPM_P2
2022/02/09 00:07:58;;;;;;;11.90;2.17;;;;;;;7.53;89.62;102668.47;5075517;28;20044;-76
2022/02/09 00:10:12;;;;;;;12.32;2.00;;;;;;;7.47;90.02;102677.56;5074424;28;20516;-75
2022/02/09 00:12:48;;;;;;;13.38;1.90;;;;;;;7.50;89.79;102665.97;5074934;28;20032;-76
2022/02/09 00:17:50;;;;;;;9.88;1.73;;;;;;;7.51;89.90;102667.66;5074949;28;20048;-75
2022/02/09 00:20:40;;;;;;;16.52;2.08;;;;;;;7.48;89.48;102660.75;5074964;28;20024;-75
2022/02/09 00:37:27;;;;;;;8.43;2.15;;;;;;;7.44;89.59;102655.66;5012416;28;20635;-75
2022/02/09 00:59:00;;;;;;;12.13;2.15;;;;;;;7.54;89.41;102660.44;5074526;28;20114;-76
2022/02/09 00:59:27;;;;;;;10.98;1.60;;;;;;;7.64;89.30;102659.97;5073885;28;20132;-75
2022/02/09 01:40:00;;;;;;;17.90;2.88;;;;;;;7.68;90.53;102651.81;5073946;28;20105;-79
2022/02/09 01:56:23;;;;;;;14.93;2.50;;;;;;;7.61;91.95;102638.94;5073072;28;20090;-75
2022/02/09 01:58:49;;;;;;;14.18;2.83;;;;;;;7.59;92.23;102634.56;5073517;28;20032;-75
2022/02/09 02:01:14;;;;;;;13.27;2.95;;;;;;;7.59;92.56;102636.38;5072632;28;20036;-76
2022/02/09 02:03:39;;;;;;;13.77;2.78;;;;;;;7.57;92.58;102632.94;5072118;28;20128;-75
2022/02/09 02:06:05;;;;;;;10.90;2.25;;;;;;;7.59;92.88;102623.13;5071847;28;20107;-75
2022/02/09 02:08:34;;;;;;;9.05;2.17;;;;;;;7.61;93.06;102625.69;5072716;28;20044;-76
2022/02/09 02:11:19;;;;;;;10.38;2.20;;;;;;;7.59;93.19;102628.41;5072948;28;20035;-76
2022/02/09 02:18:47;;;;;;;13.18;2.92;;;;;;;7.57;93.75;102622.34;5073478;28;20044;-75
2022/02/09 02:24:07;;;;;;;7.78;2.00;;;;;;;7.59;93.76;102608.06;5073752;28;20457;-75
2022/02/09 02:31:50;;;;;;;7.93;2.17;;;;;;;7.64;93.51;102599.91;5072759;28;20053;-76
2022/02/09 02:37:04;;;;;;;10.48;3.83;;;;;;;7.69;93.66;102599.69;5073482;28;20518;-76
2022/02/09 02:47:43;;;;;;;8.18;3.80;;;;;;;7.59;94.24;102588.69;5072694;28;20508;-75
2022/02/09 02:59:05;;;;;;;10.70;3.13;;;;;;;7.53;94.12;102584.53;5073051;28;20039;-76
2022/02/09 03:09:53;;;;;;;8.80;2.70;;;;;;;7.49;94.81;102571.53;5076513;28;20127;-75
2022/02/09 03:15:04;;;;;;;9.70;3.20;;;;;;;7.48;95.17;102577.75;5075506;28;20037;-76
2022/02/09 03:17:35;;;;;;;5.70;2.60;;;;;;;7.47;95.31;102584.00;5075565;28;20562;-76
2022/02/09 03:20:08;;;;;;;11.57;3.15;;;;;;;7.46;95.34;102582.28;5075879;28;20036;-76
2022/02/09 03:22:52;;;;;;;8.07;2.58;;;;;;;7.43;95.52;102571.84;5076051;28;20094;-75
2022/02/09 03:25:36;;;;;;;8.02;2.50;;;;;;;7.43;95.65;102580.63;5075123;28;20024;-75
2022/02/09 03:30:58;;;;;;;7.65;2.60;;;;;;;7.42;95.68;102581.59;5075948;28;20094;-75
2022/02/09 03:57:25;;;;;;;6.13;2.90;;;;;;;7.46;95.94;102551.34;5075732;28;20491;-75
2022/02/09 03:59:50;;;;;;;6.25;3.38;;;;;;;7.46;95.78;102548.69;5075850;28;20062;-75
2022/02/09 04:02:16;;;;;;;7.30;3.00;;;;;;;7.46;95.57;102553.16;5075122;28;20509;-75
2022/02/09 04:04:41;;;;;;;8.30;3.33;;;;;;;7.43;95.62;102556.78;5075230;28;20033;-75
2022/02/09 04:07:08;;;;;;;7.85;3.60;;;;;;;7.43;95.48;102543.56;5075245;28;20108;-75
2022/02/09 04:09:37;;;;;;;10.63;3.75;;;;;;;7.46;95.26;102540.75;5075211;28;20057;-75
2022/02/09 04:12:17;;;;;;;9.35;3.20;;;;;;;7.46;95.05;102542.56;5075163;28;20036;-75
2022/02/09 04:14:53;;;;;;;7.35;3.28;;;;;;;7.45;95.23;102554.94;5075315;28;20033;-75
2022/02/09 04:17:39;;;;;;;8.85;3.53;;;;;;;7.45;95.21;102552.31;5075010;28;20063;-75
2022/02/09 04:22:19;;;;;;;8.43;3.90;;;;;;;7.44;95.19;102545.28;5074825;28;20161;-75
2022/02/09 04:36:49;;;;;;;9.15;3.70;;;;;;;7.36;95.20;102548.31;5074978;28;20094;-74
2022/02/09 04:39:25;;;;;;;10.38;4.03;;;;;;;7.36;95.39;102550.09;5074060;28;20055;-75
2022/02/09 04:42:05;;;;;;;10.15;4.20;;;;;;;7.37;95.34;102542.06;5074743;28;20032;-74
2022/02/09 04:47:49;;;;;;;12.52;4.78;;;;;;;7.35;95.51;102549.25;5006893;28;20042;-75
2022/02/09 04:50:24;;;;;;;8.52;3.47;;;;;;;7.36;95.54;102535.06;5074804;28;20040;-75
2022/02/09 04:52:59;;;;;;;10.93;4.95;;;;;;;7.37;95.52;102533.28;5074339;28;20120;-75
2022/02/09 04:55:39;;;;;;;5.80;3.83;;;;;;;7.39;95.45;102531.44;5073788;28;20400;-76
2022/02/09 04:58:14;;;;;;;10.73;4.18;;;;;;;7.36;95.34;102528.91;5073129;28;20040;-75
2022/02/09 05:01:00;;;;;;;6.82;3.60;;;;;;;7.37;95.46;102538.56;5074228;28;20048;-75
2022/02/09 05:27:21;;;;;;;8.10;3.85;;;;;;;7.32;95.30;102524.72;5072449;28;20123;-74
2022/02/09 05:29:47;;;;;;;7.93;4.00;;;;;;;7.33;95.30;102523.75;5072159;28;20033;-74
2022/02/09 05:32:12;;;;;;;8.45;4.25;;;;;;;7.29;95.34;102523.06;5073996;28;20476;-74
2022/02/09 05:34:38;;;;;;;12.00;4.13;;;;;;;7.28;95.42;102529.28;5073420;28;20021;-77
2022/02/09 05:37:04;;;;;;;8.38;4.05;;;;;;;7.30;95.44;102529.22;5071841;28;20028;-75
2022/02/09 05:39:30;;;;;;;11.88;3.80;;;;;;;7.28;95.42;102539.03;5073643;28;20021;-75
2022/02/09 05:41:55;;;;;;;12.10;4.03;;;;;;;7.25;95.62;102537.38;5073142;28;20089;-75
2022/02/09 05:44:21;;;;;;;10.65;3.80;;;;;;;7.22;95.65;102533.09;5073099;28;20036;-75
2022/02/09 05:49:37;;;;;;;11.73;4.22;;;;;;;7.21;95.47;102531.41;5073270;28;20045;-74
2022/02/09 05:55:12;;;;;;;8.73;3.35;;;;;;;7.26;95.52;102535.63;5040936;28;20048;-75
2022/02/09 05:57:49;;;;;;;8.25;3.88;;;;;;;7.21;95.97;102531.41;5072250;28;20044;-75
2022/02/09 06:00:16;;;;;;;7.70;3.83;;;;;;;7.13;96.57;102530.06;5072392;28;20119;-75
2022/02/09 06:02:42;;;;;;;7.35;3.53;;;;;;;7.09;96.88;102523.19;5072789;28;20047;-75
2022/02/09 06:05:08;;;;;;;7.55;3.40;;;;;;;7.06;97.48;102521.53;5071532;28;20036;-75
2022/02/09 06:07:33;;;;;;;10.20;3.53;;;;;;;7.05;97.40;102519.84;5072479;28;20025;-74
2022/02/09 06:09:58;;;;;;;7.13;2.90;;;;;;;7.05;97.71;102522.50;5072501;28;20431;-74
2022/02/09 06:12:33;;;;;;;7.53;2.90;;;;;;;7.04;97.68;102515.47;5072366;28;20036;-75
2022/02/09 06:20:17;;;;;;;8.63;3.38;;;;;;;7.01;98.07;102516.47;5072464;28;20048;-74
2022/02/09 06:22:42;;;;;;;10.63;3.80;;;;;;;7.01;98.11;102524.41;5072095;28;20056;-75
2022/02/09 06:25:08;;;;;;;11.85;3.45;;;;;;;7.00;98.33;102524.50;5072501;28;20031;-75
2022/02/09 06:27:33;;;;;;;6.88;3.47;;;;;;;6.98;98.77;102523.72;5072431;28;20115;-78
2022/02/09 06:29:59;;;;;;;10.82;3.50;;;;;;;6.99;98.64;102518.34;5072722;28;20051;-76
2022/02/09 06:32:24;;;;;;;10.75;4.03;;;;;;;6.96;98.80;102522.94;5072277;28;20036;-73
2022/02/09 06:34:50;;;;;;;11.57;4.55;;;;;;;6.95;99.03;102527.38;5071020;28;20445;-73
2022/02/09 06:40:14;;;;;;;9.20;4.30;;;;;;;6.92;99.26;102522.22;5057822;28;20074;-76
2022/02/09 06:42:39;;;;;;;8.43;4.10;;;;;;;6.94;99.43;102525.66;5074236;28;20048;-74
2022/02/09 06:45:20;;;;;;;14.45;4.38;;;;;;;6.95;98.93;102518.56;5075997;28;20030;-73
2022/02/09 06:47:46;;;;;;;12.50;4.15;;;;;;;6.98;99.28;102510.50;5075596;28;20028;-76
2022/02/09 06:50:21;;;;;;;12.48;4.55;;;;;;;6.95;99.09;102511.50;5075447;28;20029;-71
2022/02/09 06:52:57;;;;;;;11.98;4.40;;;;;;;6.94;99.08;102509.78;5074527;28;20032;-72
2022/02/09 06:55:22;;;;;;;11.80;4.25;;;;;;;6.95;99.16;102508.84;5074657;28;20033;-71
2022/02/09 07:00:15;;;;;;;9.63;4.00;;;;;;;6.97;99.19;102506.13;5075897;28;20150;-75
2022/02/09 07:02:41;;;;;;;11.68;4.18;;;;;;;6.99;98.81;102507.75;5075457;28;20060;-76
2022/02/09 07:05:08;;;;;;;10.80;3.58;;;;;;;7.01;98.72;102507.69;5075604;28;20039;-78
2022/02/09 07:07:33;;;;;;;13.30;4.72;;;;;;;6.99;98.65;102521.00;5074829;28;20033;-74
2022/02/09 07:09:59;;;;;;;11.07;4.70;;;;;;;7.00;98.40;102498.91;5074216;28;20089;-74
2022/02/09 07:12:24;;;;;;;14.88;4.70;;;;;;;7.02;98.51;102509.41;5075426;28;20032;-74
2022/02/09 07:14:50;;;;;;;11.60;4.63;;;;;;;7.02;98.49;102499.69;5075139;28;20519;-74
2022/02/09 07:17:15;;;;;;;11.02;4.18;;;;;;;7.05;98.18;102496.03;5074703;28;20032;-73
2022/02/09 07:19:43;;;;;;;15.02;4.60;;;;;;;7.07;98.33;102487.06;5074922;28;20028;-72
2022/02/09 07:22:13;;;;;;;9.75;4.50;;;;;;;7.08;98.03;102506.47;5074454;28;20475;-72
2022/02/09 07:24:38;;;;;;;10.40;4.38;;;;;;;7.10;97.76;102512.53;5075188;28;20482;-73
2022/02/09 07:29:55;;;;;;;11.73;5.50;;;;;;;7.12;97.66;102507.16;5061258;28;20041;-71
2022/02/09 07:32:21;;;;;;;10.77;5.05;;;;;;;7.13;97.33;102500.94;5083238;28;20078;-74
2022/02/09 07:34:47;;;;;;;9.68;5.03;;;;;;;7.16;97.20;102500.78;5074960;28;20102;-74
2022/02/09 07:37:12;;;;;;;12.43;5.75;;;;;;;7.16;97.04;102504.28;5073618;28;20036;-81
2022/02/09 07:39:38;;;;;;;8.20;4.88;;;;;;;7.18;96.74;102498.91;5074239;28;20067;-76
2022/02/09 07:42:10;;;;;;;13.15;6.38;;;;;;;7.21;96.78;102515.50;5075002;28;20028;-75
2022/02/09 07:52:51;;;;;;;;;;;;;;;7.27;96.25;102513.47;5074925;28;20390;-75
2022/02/09 07:55:17;;;;;;;8.45;4.18;;;;;;;7.22;96.37;102509.25;5074366;28;20311;-77
2022/02/09 07:57:42;;;;;;;15.35;4.60;;;;;;;7.25;96.18;102508.25;5074288;28;20078;-74
2022/02/09 08:00:09;;;;;;;10.23;5.05;;;;;;;7.31;95.88;102515.91;5073322;28;20029;-76
2022/02/09 08:02:35;;;;;;;10.30;4.70;;;;;;;7.33;95.54;102511.41;5074158;28;20097;-76
2022/02/09 08:05:00;;;;;;;8.32;4.28;;;;;;;7.35;95.41;102511.31;5073039;28;20427;-77
2022/02/09 08:07:27;;;;;;;9.40;4.78;;;;;;;7.38;95.03;102517.31;5073403;28;20448;-76
2022/02/09 08:09:56;;;;;;;8.10;4.38;;;;;;;7.40;94.84;102514.56;5074413;28;20063;-75
2022/02/09 08:28:33;;;;;;;11.18;4.65;;;;;;;7.64;92.58;102506.31;5073871;28;20044;-74
2022/02/09 08:33:21;;;;;;;7.13;4.50;;;;;;;7.69;92.04;102507.81;5073734;28;20044;-76
2022/02/09 08:35:52;;;;;;;8.80;4.60;;;;;;;7.72;91.72;102517.41;5073702;28;20446;-78
2022/02/09 08:38:17;;;;;;;8.30;4.80;;;;;;;7.71;91.83;102507.72;5073845;28;20423;-77
2022/02/09 08:40:45;;;;;;;11.65;5.60;;;;;;;7.72;92.09;102512.94;5073832;28;20056;-76
2022/02/09 08:43:11;;;;;;;9.00;5.13;;;;;;;7.77;91.75;102508.25;5072448;28;20035;-77
2022/02/09 08:45:39;;;;;;;12.00;5.75;;;;;;;7.81;91.55;102502.78;5073798;28;20028;-76
2022/02/09 08:48:06;;;;;;;10.85;4.90;;;;;;;7.80;91.98;102511.69;5073449;28;20028;-76
2022/02/09 08:50:31;;;;;;;10.95;4.93;;;;;;;7.81;91.71;102516.91;5072200;28;20127;-75
2022/02/09 08:52:57;;;;;;;9.07;5.28;;;;;;;7.85;91.47;102504.34;5073338;28;20029;-77
2022/02/09 08:55:22;;;;;;;8.65;5.05;;;;;;;7.90;91.17;102499.69;5073439;28;20039;-74
2022/02/09 08:57:48;;;;;;;9.68;5.53;;;;;;;7.96;90.68;102504.66;5073386;28;20067;-76
2022/02/09 09:02:50;;;;;;;13.30;6.10;;;;;;;7.97;90.67;102505.50;5073374;28;20043;-75
2022/02/09 09:05:22;;;;;;;9.65;5.50;;;;;;;7.95;90.79;102509.06;5071423;28;20028;-74
2022/02/09 09:07:53;;;;;;;11.10;6.20;;;;;;;7.99;90.42;102514.25;5073495;28;20040;-74
2022/02/09 09:10:42;;;;;;;14.55;6.20;;;;;;;7.99;90.38;102503.63;5073330;28;20063;-74
2022/02/09 09:18:57;;;;;;;19.67;5.90;;;;;;;8.17;89.86;102513.25;5073103;28;20040;-74
2022/02/09 10:05:42;;;;;;;14.07;6.13;;;;;;;8.87;84.51;102533.34;5068462;28;20036;-73
2022/02/09 10:30:53;;;;;;;12.35;6.10;;;;;;;9.23;82.15;102529.56;5040762;28;20064;-72
2022/02/09 10:34:28;;;;;;;10.80;6.45;;;;;;;10.21;78.05;102530.75;5071615;28;20499;-72
2022/02/09 10:37:03;;;;;;;12.45;6.63;;;;;;;9.96;79.40;102534.94;5071623;28;20067;-72
2022/02/09 10:39:44;;;;;;;15.25;7.00;;;;;;;9.81;79.54;102543.84;5071412;28;20033;-72
2022/02/09 10:44:47;;;;;;;17.45;7.75;;;;;;;9.57;80.65;102544.38;5071467;28;20037;-73
2022/02/09 10:47:36;;;;;;;13.55;6.82;;;;;;;9.51;81.67;102545.56;5071719;28;20033;-70
2022/02/09 10:50:26;;;;;;;16.45;7.20;;;;;;;9.41;82.46;102557.69;5071312;28;20377;-71
2022/02/09 10:52:52;;;;;;;17.42;7.85;;;;;;;9.27;81.99;102560.28;5071577;28;20024;-71
2022/02/09 10:55:46;;;;;;;11.90;7.22;;;;;;;9.12;82.89;102552.28;5070645;28;20056;-72
2022/02/09 10:58:20;;;;;;;17.05;8.07;;;;;;;9.08;83.23;102557.84;5068556;28;20041;-71
2022/02/09 11:00:46;;;;;;;12.80;7.28;;;;;;;9.08;83.74;102565.81;5071043;28;20033;-69
2022/02/09 11:03:16;;;;;;;13.45;7.85;;;;;;;9.14;82.73;102561.00;5071439;28;20118;-72
2022/02/09 11:05:47;;;;;;;16.50;7.93;;;;;;;9.22;83.12;102562.34;5070194;28;20131;-70
2022/02/09 11:08:13;;;;;;;15.20;7.13;;;;;;;9.35;82.94;102558.06;5071494;28;20040;-71
2022/02/09 11:10:38;;;;;;;15.00;7.53;;;;;;;9.56;81.13;102571.03;5071159;28;20044;-72
2022/02/09 11:13:11;;;;;;;13.18;7.30;;;;;;;9.50;81.85;102565.13;5071149;28;20484;-74
2022/02/09 11:15:41;;;;;;;15.32;7.55;;;;;;;9.42;81.42;102559.41;5070937;28;20082;-73
2022/02/09 11:18:10;;;;;;;14.90;7.90;;;;;;;9.39;81.79;102564.91;5071037;28;20028;-73
2022/02/09 11:20:59;;;;;;;11.95;7.13;;;;;;;9.33;81.96;102562.56;5071435;28;20063;-72
2022/02/09 11:23:44;;;;;;;12.77;6.90;;;;;;;9.41;81.40;102556.84;5070750;28;20053;-75
2022/02/09 11:26:37;;;;;;;15.07;7.47;;;;;;;9.48;81.38;102566.13;5070983;28;20033;-72
2022/02/09 11:29:49;;;;;;;11.30;7.00;;;;;;;9.44;82.02;102557.50;5072239;28;20128;-72
2022/02/09 11:32:50;;;;;;;16.98;7.38;;;;;;;9.59;81.32;102557.56;5066592;28;20053;-74
2022/02/09 11:38:18;;;;;;;11.32;6.63;;;;;;;9.97;79.88;102559.72;5060439;28;20045;-75
2022/02/09 11:43:31;;;;;;;11.93;6.83;;;;;;;10.15;79.88;102544.44;5074606;28;20393;-73
2022/02/09 12:10:52;;;;;;;12.02;6.40;;;;;;;10.51;77.25;102519.16;5074398;28;20051;-73
2022/02/09 12:13:51;;;;;;;14.65;6.50;;;;;;;10.30;78.21;102522.22;5074668;28;20082;-73
2022/02/09 12:16:48;;;;;;;13.85;5.68;;;;;;;10.24;77.79;102507.50;5074254;28;20024;-76
2022/02/09 12:19:33;;;;;;;11.65;6.03;;;;;;;10.18;78.05;102512.31;5073133;28;20495;-74
2022/02/09 12:24:28;;;;;;;16.50;6.38;;;;;;;9.84;79.68;102509.94;5073651;28;20128;-72
2022/02/09 12:27:08;;;;;;;12.45;6.47;;;;;;;9.80;80.19;102524.38;5074006;28;20028;-75
2022/02/09 12:29:41;;;;;;;15.55;6.15;;;;;;;9.73;80.68;102519.53;5073739;28;20032;-71
2022/02/09 12:32:16;;;;;;;14.68;6.88;;;;;;;9.69;80.80;102518.88;5074097;28;20028;-73
2022/02/09 12:35:07;;;;;;;16.20;6.82;;;;;;;9.69;80.86;102510.88;5073757;28;20113;-72
2022/02/09 12:37:38;;;;;;;11.82;6.18;;;;;;;9.68;80.79;102515.31;5074401;28;20453;-72
2022/02/09 12:40:16;;;;;;;14.40;6.10;;;;;;;9.64;80.87;102515.59;5071245;28;20032;-74
2022/02/09 12:42:46;;;;;;;15.30;6.13;;;;;;;9.71;80.58;102516.94;5073872;28;20149;-74
2022/02/09 12:45:22;;;;;;;18.95;7.00;;;;;;;9.67;80.94;102518.06;5072865;28;20488;-72
2022/02/09 12:47:53;;;;;;;15.35;6.75;;;;;;;9.56;81.26;102507.25;5072604;28;20149;-73
2022/02/09 12:50:26;;;;;;;17.15;6.53;;;;;;;9.49;81.43;102518.25;5073886;28;20021;-72
2022/02/09 12:52:53;;;;;;;16.05;7.13;;;;;;;9.60;81.36;102524.69;5074032;28;20033;-71
2022/02/09 12:55:20;;;;;;;15.82;5.93;;;;;;;9.57;82.16;102509.81;5073758;28;20461;-72
2022/02/09 12:57:50;;;;;;;12.10;5.85;;;;;;;9.53;82.63;102502.97;5073775;28;20069;-72
2022/02/09 13:00:24;;;;;;;11.20;5.85;;;;;;;9.55;83.26;102505.53;5073903;28;20028;-72
2022/02/09 13:02:51;;;;;;;14.90;5.28;;;;;;;9.67;81.80;102508.31;5073782;28;20166;-73
2022/02/09 13:05:16;;;;;;;12.00;5.30;;;;;;;9.80;81.55;102500.44;5074158;28;20066;-73
2022/02/09 13:07:52;;;;;;;11.57;5.53;;;;;;;9.81;80.91;102502.16;5072161;28;20489;-73
2022/02/09 13:10:33;;;;;;;12.20;4.93;;;;;;;10.00;79.75;102504.56;5074063;28;20139;-73
2022/02/09 13:13:06;;;;;;;;;;;;;;;10.01;79.10;102502.75;5073956;28;20028;-73
2022/02/09 13:15:39;;;;;;;11.75;4.65;;;;;;;10.00;79.16;102495.69;5073754;28;19912;-75
2022/02/09 13:23:40;;;;;;;11.02;4.68;;;;;;;10.15;79.10;102500.09;5073491;28;20059;-75
2022/02/09 14:53:47;;;;;;;19.67;6.22;;;;;;;8.14;89.09;102508.09;5047664;28;20359;-77
2022/02/09 14:56:19;;;;;;;26.33;7.03;;;;;;;8.08;89.95;102508.44;5072456;28;20097;-75
2022/02/09 14:58:47;;;;;;;17.45;6.70;;;;;;;7.99;90.56;102508.94;5071619;28;20079;-75
2022/02/09 15:01:18;;;;;;;17.63;7.10;;;;;;;7.86;91.83;102509.56;5071440;28;20075;-75
2022/02/09 15:04:01;;;;;;;23.08;7.72;;;;;;;7.70;93.30;102503.34;5074624;28;20093;-72
2022/02/09 15:09:19;;;;;;;21.48;8.32;;;;;;;7.57;95.77;102513.75;5075439;28;20124;-74
2022/02/09 15:12:15;;;;;;;14.68;6.65;;;;;;;7.50;96.32;102515.84;5075114;28;20044;-75
2022/02/09 15:22:53;;;;;;;18.50;7.18;;;;;;;7.34;98.68;102514.91;5074922;28;20095;-72
2022/02/09 15:25:21;;;;;;;19.75;8.00;;;;;;;7.28;98.90;102513.41;5075426;28;20029;-74
2022/02/09 15:27:51;;;;;;;27.05;9.55;;;;;;;7.26;99.34;102510.00;5075053;28;20036;-73
2022/02/09 15:30:16;;;;;;;23.30;8.60;;;;;;;7.23;99.80;102510.13;5075232;28;20060;-75
2022/02/09 15:32:46;;;;;;;22.35;8.95;;;;;;;7.20;100.00;102516.44;5075213;28;20025;-75
2022/02/09 15:37:58;;;;;;;25.40;8.60;;;;;;;7.16;100.00;102511.38;5075570;28;20043;-73
2022/02/09 15:40:34;;;;;;;24.05;8.57;;;;;;;7.15;100.00;102513.19;5074716;28;20143;-75
2022/02/09 15:44:05;;;;;;;26.85;8.90;;;;;;;7.10;100.00;102514.31;5074949;28;20197;-73
2022/02/09 15:57:00;;;;;;;24.15;9.90;;;;;;;7.01;100.00;102507.69;5074623;28;20102;-73
2022/02/09 16:08:14;;;;;;;27.67;9.98;;;;;;;6.94;100.00;102504.50;5074244;28;20060;-75
2022/02/09 16:18:36;;;;;;;34.00;9.68;;;;;;;6.94;100.00;102499.22;5073615;28;20039;-74
2022/02/09 16:23:45;;;;;;;30.45;9.57;;;;;;;6.93;100.00;102496.63;5073553;28;20515;-70
2022/02/09 16:45:04;;;;;;;28.23;9.23;;;;;;;6.88;100.00;102487.13;5072423;28;20071;-73
2022/02/09 16:48:14;;;;;;;33.60;9.40;;;;;;;6.89;100.00;102480.03;5072253;28;20036;-73
2022/02/09 16:50:24;;;;;;;34.13;10.00;;;;;;;6.88;100.00;102486.25;5064994;28;20041;-73
2022/02/09 16:53:06;;;;;;;24.95;8.52;;;;;;;6.85;100.00;102482.00;5073004;28;20496;-73
2022/02/09 16:55:53;;;;;;;27.60;9.25;;;;;;;6.87;100.00;102473.97;5073415;28;20032;-73
2022/02/09 17:19:41;;;;;;;35.70;12.15;;;;;;;6.87;100.00;102477.47;5073297;28;20419;-74
2022/02/09 17:22:08;;;;;;;23.40;10.15;;;;;;;6.88;100.00;102478.31;5072749;28;20056;-73
2022/02/09 17:24:34;;;;;;;25.20;9.40;;;;;;;6.88;100.00;102479.19;5073189;28;20048;-73
2022/02/09 17:27:00;;;;;;;28.60;12.57;;;;;;;6.90;100.00;102471.19;5072149;28;20078;-73
2022/02/09 17:29:38;;;;;;;31.95;12.68;;;;;;;6.88;100.00;102476.53;5072652;28;20414;-73
2022/02/09 17:32:12;;;;;;;37.45;15.35;;;;;;;6.89;100.00;102474.75;5073332;28;20043;-73
2022/02/09 17:34:56;;;;;;;30.17;10.65;;;;;;;6.88;100.00;102475.66;5073322;28;20036;-73
2022/02/09 17:53:28;;;;;;;28.35;12.25;;;;;;;6.91;100.00;102459.63;5072169;28;20269;-73
2022/02/09 17:56:16;;;;;;;30.75;10.40;;;;;;;6.93;100.00;102467.53;5072142;28;20044;-74
2022/02/09 17:58:47;;;;;;;31.38;10.45;;;;;;;6.92;100.00;102457.88;5072882;28;20036;-72
2022/02/09 18:01:16;;;;;;;23.38;9.15;;;;;;;6.91;100.00;102457.00;5071263;28;20032;-73
2022/02/09 18:03:42;;;;;;;30.08;10.02;;;;;;;6.88;100.00;102458.03;5072419;28;20033;-74
2022/02/09 18:06:22;;;;;;;27.65;8.90;;;;;;;6.86;100.00;102446.63;5072127;28;20028;-73
2022/02/09 18:09:02;;;;;;;35.45;10.52;;;;;;;6.86;100.00;102453.72;5072441;28;20047;-73
2022/02/09 18:25:19;;;;;;;30.65;10.85;;;;;;;6.86;100.00;102441.34;5071994;28;20431;-73
2022/02/09 18:33:11;;;;;;;33.90;10.10;;;;;;;6.83;100.00;102443.28;5072050;28;20050;-74
2022/02/09 18:43:34;;;;;;;31.67;13.13;;;;;;;6.82;100.00;102429.22;5075805;28;20423;-73
2022/02/09 18:56:58;;;;;;;27.67;8.82;;;;;;;6.83;100.00;102416.84;5076003;28;20112;-74
2022/02/09 18:59:30;;;;;;;23.65;8.85;;;;;;;6.84;100.00;102415.91;5074765;28;20029;-74
2022/02/09 19:04:38;;;;;;;28.00;10.02;;;;;;;6.86;100.00;102417.53;5075755;28;20538;-74
2022/02/09 19:07:32;;;;;;;28.33;9.45;;;;;;;6.87;100.00;102415.75;5073541;28;20096;-73
2022/02/09 19:31:32;;;;;;;30.70;9.60;;;;;;;6.86;100.00;102392.88;5074867;28;20412;-74
2022/02/09 19:45:10;;;;;;;24.85;9.25;;;;;;;6.84;100.00;102400.03;5074901;28;20070;-74
2022/02/09 19:47:42;;;;;;;23.65;9.48;;;;;;;6.87;100.00;102390.16;5074511;28;20465;-74
2022/02/09 19:53:08;;;;;;;20.73;8.93;;;;;;;6.91;100.00;102393.47;5073522;28;20128;-74
2022/02/09 19:55:36;;;;;;;19.30;8.40;;;;;;;6.90;100.00;102391.78;5074912;28;20043;-73
2022/02/09 19:58:02;;;;;;;21.15;8.73;;;;;;;6.93;100.00;102388.16;5074579;28;20035;-73
2022/02/09 20:00:31;;;;;;;20.83;9.07;;;;;;;6.96;100.00;102391.47;5074759;28;20048;-73
2022/02/09 20:02:57;;;;;;;29.65;8.68;;;;;;;6.96;100.00;102388.81;5074732;28;20060;-73
2022/02/09 20:05:24;;;;;;;20.15;8.32;;;;;;;6.94;100.00;102387.19;5074282;28;20104;-73
2022/02/09 20:07:51;;;;;;;19.33;8.85;;;;;;;6.91;100.00;102382.06;5072777;28;20461;-75
2022/02/09 20:10:17;;;;;;;20.42;7.95;;;;;;;6.91;100.00;102377.59;5074223;28;20472;-73
2022/02/09 20:12:42;;;;;;;21.25;8.00;;;;;;;6.92;100.00;102379.31;5073989;28;20040;-74
2022/02/09 20:15:12;;;;;;;21.25;7.78;;;;;;;6.91;100.00;102380.25;5074138;28;20073;-74
2022/02/09 20:17:42;;;;;;;27.50;7.80;;;;;;;6.96;100.00;102374.75;5072861;28;20036;-73
2022/02/09 20:20:12;;;;;;;14.70;7.10;;;;;;;6.94;100.00;102369.53;5073935;28;20042;-74
2022/02/09 20:22:37;;;;;;;23.02;7.28;;;;;;;6.94;100.00;102366.00;5074076;28;20024;-74
2022/02/09 20:25:04;;;;;;;17.77;7.10;;;;;;;6.91;100.00;102372.31;5073830;28;20478;-74
2022/02/09 20:27:33;;;;;;;17.67;7.00;;;;;;;6.89;100.00;102358.31;5072613;28;20025;-75
2022/02/09 20:29:59;;;;;;;21.20;7.63;;;;;;;6.91;100.00;102366.19;5073690;28;20474;-74
2022/02/09 20:32:31;;;;;;;20.27;7.07;;;;;;;6.87;100.00;102357.56;5074420;28;20115;-74
2022/02/09 20:35:00;;;;;;;19.63;7.57;;;;;;;6.86;100.00;102356.66;5073710;28;20040;-75
2022/02/09 20:37:27;;;;;;;21.45;7.82;;;;;;;6.90;100.00;102354.75;5072519;28;20037;-74
2022/02/09 20:42:25;;;;;;;;;;;;;;;6.99;100.00;102350.78;5073369;28;20068;-73
2022/02/09 20:45:06;;;;;;;19.15;7.22;;;;;;;7.03;100.00;102353.19;5073862;28;19958;-73
2022/02/09 20:47:33;;;;;;;17.98;8.18;;;;;;;7.07;100.00;102349.41;5073807;28;20082;-71
2022/02/09 20:49:58;;;;;;;21.67;9.05;;;;;;;7.08;100.00;102352.94;5073593;28;20032;-73
2022/02/09 20:52:23;;;;;;;14.15;7.97;;;;;;;7.06;100.00;102347.72;5073610;28;20446;-74
2022/02/09 20:54:49;;;;;;;24.60;8.88;;;;;;;7.09;100.00;102359.09;5073375;28;20029;-75
2022/02/09 20:57:14;;;;;;;20.35;8.02;;;;;;;7.10;100.00;102358.16;5073120;28;20454;-72
2022/02/09 20:59:47;;;;;;;17.20;8.70;;;;;;;7.16;99.64;102356.03;5072930;28;20025;-74
2022/02/09 21:02:54;;;;;;;22.63;9.75;;;;;;;7.15;99.12;102345.53;5073166;28;20055;-72
2022/02/09 21:05:25;;;;;;;;;;;;;;;7.14;99.26;102351.78;5070091;28;20041;-73
2022/02/09 21:08:25;;;;;;;19.67;9.10;;;;;;;7.12;99.30;102341.28;5073597;28;19912;-72
2022/02/09 21:21:16;;;;;;;23.35;10.25;;;;;;;7.04;99.79;102336.34;5072665;28;20044;-74
2022/02/09 21:52:37;;;;;;;19.13;10.55;;;;;;;6.94;99.49;102318.38;5073711;28;20362;-73
2022/02/09 21:57:18;;;;;;;22.30;12.27;;;;;;;6.92;100.00;102325.56;5073202;28;19958;-75
2022/02/09 22:28:43;;;;;;;35.45;13.80;;;;;;;6.95;99.43;102304.22;5072914;28;20082;-73
2022/02/09 22:50:28;;;;;;;27.23;15.40;;;;;;;6.95;99.49;102269.81;5055296;28;20043;-72
2022/02/09 22:55:43;;;;;;;30.08;14.77;;;;;;;6.96;99.15;102268.91;5072717;28;20067;-74
2022/02/09 22:58:11;;;;;;;31.67;15.32;;;;;;;6.97;98.95;102258.22;5072578;28;20028;-73
2022/02/09 23:00:57;;;;;;;28.08;15.70;;;;;;;6.97;98.94;102252.06;5072730;28;20086;-73
2022/02/09 23:03:30;;;;;;;31.73;15.73;;;;;;;7.00;98.72;102250.13;5073120;28;20028;-73
2022/02/09 23:06:10;;;;;;;30.52;16.63;;;;;;;6.99;98.49;102244.91;5071839;28;20036;-74
2022/02/09 23:25:13;;;;;;;31.42;15.35;;;;;;;6.91;98.75;102241.81;5040370;28;20057;-73
2022/02/09 23:28:13;;;;;;;31.02;16.35;;;;;;;6.96;98.52;102242.44;5075917;28;20049;-73
2022/02/09 23:55:38;;;;;;;33.28;17.42;;;;;;;6.91;98.08;102223.28;5075275;28;20182;-73
